Date,TemperatureHighF,TemperatureAvgF,TemperatureLowF,DewpointHighF,DewpointAvgF,DewpointLowF,HumidityHigh,HumidityAvg,HumidityLow,PressureMaxIn,PressureMinIn,WindSpeedMaxMPH,WindSpeedAvgMPH,GustSpeedMaxMPH,PrecipitationSumIn
2012-1-1,47,38,31,39,30,17,98,73,51,29.94,29.53,27,5,37,0.00
2012-1-2,31,27,21,25,15,6,83,60,46,30.12,29.83,17,5,30,0.00
2012-1-3,28,21,15,11,5,1,63,49,34,30.27,30.12,18,5,28,0.00
2012-1-4,36,28,20,18,12,5,57,51,41,30.15,29.83,9,2,13,0.00
2012-1-5,42,36,28,29,24,18,79,63,42,29.94,29.71,8,1,12,0.00
2012-1-6,54,43,37,34,30,28,79,63,40,29.71,29.65,11,2,15,0.00
2012-1-7,49,39,34,33,26,19,86,61,37,30.15,29.65,14,2,22,0.00
2012-1-8,41,32,24,23,18,14,84,60,36,30.33,30.15,7,0,11,0.00
2012-1-9,43,33,24,25,21,18,87,63,39,30.24,29.91,9,1,15,0.00
2012-1-10,49,35,27,33,27,23,98,74,41,30.00,29.85,6,0,9,0.00
2012-1-11,45,35,26,38,30,25,98,85,48,29.85,29.44,9,2,15,0.16
2012-1-12,40,36,20,39,34,10,98,93,64,29.44,29.29,9,0,12,0.20
2012-1-13,26,23,19,24,17,9,97,78,63,29.91,29.38,0,0,0,0.00
2012-1-14,25,22,20,19,15,10,82,73,56,30.21,29.91,0,0,0,0.00
2012-1-15,32,21,15,15,7,-5,78,55,37,30.42,30.21,0,0,0,0.00
2012-1-16,45,33,18,44,24,8,98,72,42,30.27,29.77,10,1,14,0.16
2012-1-17,54,43,28,51,38,11,98,84,49,29.97,29.35,21,4,38,0.67
2012-1-18,29,24,21,12,7,4,60,48,37,30.24,29.97,14,4,26,0.00
2012-1-19,30,21,5,25,8,-10,83,57,40,30.12,29.74,18,4,26,0.00
2012-1-20,20,11,1,11,-3,-14,80,55,36,30.27,30.03,8,1,14,0.00
2012-1-21,36,19,10,11,5,0,80,58,31,30.24,30.00,10,2,15,0.00
2012-1-22,34,26,13,34,21,3,98,82,64,30.21,29.80,9,2,13,0.04
2012-1-23,52,41,32,49,37,20,98,86,59,29.83,29.44,14,4,31,2.28
2012-1-24,33,32,31,23,21,18,69,64,58,30.30,29.83,16,3,22,0.00
2012-1-25,32,30,29,24,20,18,81,66,56,30.33,30.12,6,0,10,0.00
2012-1-26,35,33,30,34,30,24,98,92,81,30.15,29.50,9,2,22,0.28
2012-1-27,41,34,31,33,29,21,98,82,48,29.94,29.47,12,2,22,0.16
2012-1-28,37,32,27,34,23,10,98,72,37,30.06,29.74,19,3,34,0.08
2012-1-29,35,29,21,29,18,10,88,64,50,30.18,29.85,19,2,32,0.00
2012-1-30,40,29,21,31,18,12,85,63,50,30.21,29.88,10,2,15,0.00
2012-1-31,58,47,38,46,33,27,92,60,38,29.91,29.80,10,3,13,0.00
2012-2-1,50,44,38,48,36,29,98,74,51,30.09,29.80,11,2,15,0.00
2012-2-2,42,36,28,32,28,24,93,72,51,30.36,30.06,9,1,12,0.00
2012-2-3,43,33,24,37,28,23,98,82,63,30.45,30.36,10,1,13,0.00
2012-2-4,44,34,27,27,25,22,90,69,44,30.36,30.12,5,0,7,0.00
2012-2-5,48,33,22,34,25,22,98,76,39,30.21,30.09,9,1,12,0.00
2012-2-6,48,35,26,30,27,23,98,73,40,30.15,30.00,11,1,16,0.00
2012-2-7,37,33,27,30,24,14,86,71,55,30.33,30.09,12,2,16,0.00
2012-2-8,39,29,22,15,12,6,69,50,30,30.30,30.18,7,2,16,0.00
2012-2-9,39,29,21,20,17,14,87,62,38,30.21,30.09,10,2,24,0.00
2012-2-10,33,30,22,31,22,16,98,73,62,30.09,29.80,18,3,26,0.00
2012-2-11,25,17,10,16,4,-3,80,59,32,30.18,29.85,17,7,26,0.00
2012-2-12,37,24,18,13,10,5,80,55,34,30.15,30.09,14,2,19,0.00
2012-2-13,38,28,19,16,11,8,66,51,32,30.12,29.94,8,1,12,0.00
2012-2-14,36,32,29,30,24,12,98,73,46,30.03,29.83,6,0,11,0.08
2012-2-15,43,35,32,35,28,24,98,74,49,30.18,30.00,7,2,12,0.08
2012-2-16,44,38,30,42,35,26,98,89,65,30.06,29.88,12,1,16,0.08
2012-2-17,48,37,30,29,23,15,91,59,31,30.09,29.94,9,2,18,0.00
2012-2-18,41,34,24,29,19,11,79,55,34,30.18,29.91,21,4,32,0.04
2012-2-19,36,28,19,16,13,11,77,54,36,30.18,30.09,9,2,13,0.00
2012-2-20,38,27,17,27,17,13,96,68,40,30.36,30.09,8,1,12,0.00
2012-2-21,42,35,27,40,31,22,98,85,63,30.09,29.62,8,2,15,0.12
2012-2-22,40,36,33,36,33,28,98,88,68,29.68,29.41,7,1,12,0.12
2012-2-23,45,37,30,36,31,24,98,81,48,29.62,29.44,7,1,12,0.00
2012-2-24,37,34,32,36,31,24,98,91,69,29.74,29.26,16,2,24,0.35
2012-2-25,33,29,26,30,22,14,98,74,44,30.30,29.74,13,2,18,2.84
2012-2-26,40,32,15,27,17,13,94,56,39,30.36,30.09,10,4,10,0.04
2012-2-27,47,37,32,24,20,15,61,49,31,30.45,30.03,13,2,13,0.04
2012-2-28,43,33,22,28,21,18,92,62,40,30.47,30.09,8,2,8,0.00
2012-2-29,48,39,34,45,36,23,98,90,64,30.09,29.47,15,3,15,0.63
2012-3-1,45,38,35,38,32,28,97,80,56,29.85,29.53,15,1,15,0.00
2012-3-2,50,39,33,50,34,28,98,83,58,29.85,29.18,17,3,17,0.55
2012-3-3,38,34,29,30,22,17,80,62,50,29.74,29.29,19,4,19,0.00
2012-3-4,40,32,27,24,20,16,82,63,39,29.85,29.71,13,2,13,0.00
2012-3-5,35,28,24,24,15,7,86,60,34,30.36,29.85,15,2,15,0.00
2012-3-6,59,43,27,29,22,14,68,45,27,30.36,30.03,17,5,17,0.00
2012-3-7,69,60,48,39,31,20,45,34,26,30.12,29.91,17,6,17,0.00
2012-3-8,61,47,29,54,36,17,94,66,43,30.12,29.77,21,5,21,0.16
2012-3-9,41,33,25,28,15,6,86,50,30,30.47,30.09,19,4,20,0.16
2012-3-10,50,35,20,21,13,4,57,40,27,30.53,30.24,14,3,14,0.00
2012-3-11,68,50,34,29,23,20,58,38,20,30.33,30.15,11,1,11,0.00
2012-3-12,62,52,44,58,43,27,98,73,38,30.18,29.77,17,3,17,0.35
2012-3-13,68,58,49,56,44,22,98,67,20,30.00,29.83,15,2,15,0.08
2012-3-14,79,65,36,46,38,24,76,39,22,30.12,30.00,10,3,10,0.00
2012-3-15,78,66,58,63,53,46,93,64,44,30.03,29.94,12,3,15,0.51
2012-3-16,75,63,56,59,56,53,97,78,48,30.12,30.00,9,1,9,0.00
2012-3-17,78,61,47,58,52,47,98,76,38,30.18,30.09,8,1,10,0.00
2012-3-18,73,60,49,62,54,48,98,83,52,30.12,30.03,7,0,7,0.04
2012-3-19,77,60,51,58,54,50,98,82,49,30.12,30.03,9,2,10,0.00
2012-3-20,84,66,50,56,51,46,98,66,28,30.15,30.06,6,1,7,0.00
2012-3-21,85,65,51,55,50,42,91,63,23,30.21,30.09,10,1,10,0.00
2012-3-22,87,66,50,55,49,43,96,60,22,30.15,30.06,10,1,10,0.00
2012-3-23,71,59,52,52,48,44,92,69,42,30.12,29.88,8,2,11,0.20
2012-3-24,63,55,49,55,52,48,98,91,68,29.88,29.77,11,1,11,0.28
2012-3-25,73,58,48,53,45,22,98,67,29,30.03,29.83,15,3,15,0.00
2012-3-26,54,42,32,27,19,11,62,40,27,30.36,30.03,15,4,17,0.00
2012-3-27,55,41,27,32,19,9,66,43,26,30.36,29.85,10,3,12,0.00
2012-3-28,70,59,48,48,35,23,69,42,24,29.97,29.71,24,5,24,0.00
2012-3-29,48,43,36,27,25,23,67,49,40,30.15,29.97,13,3,17,0.00
2012-3-30,44,38,32,38,31,24,98,77,54,30.12,29.74,13,3,20,0.24
2012-3-31,45,40,36,36,30,26,93,70,50,29.97,29.85,8,1,8,0.00
2012-4-1,57,46,36,43,36,29,91,70,53,29.91,29.68,9,1,11,0.00
2012-4-2,55,44,34,35,29,22,89,60,37,30.03,29.83,9,2,11,0.00
2012-4-3,66,48,36,45,38,28,97,68,43,30.00,29.80,13,1,13,0.24
2012-4-4,65,52,39,46,31,19,93,50,20,29.94,29.85,13,2,18,0.00
2012-4-5,52,42,34,27,23,18,71,47,29,30.09,29.91,10,2,13,0.00
2012-4-6,62,45,29,26,21,17,69,41,21,30.27,30.09,11,2,13,0.00
2012-4-7,67,49,29,38,26,18,96,49,17,30.30,30.12,9,1,10,0.00
2012-4-8,64,54,46,42,26,15,78,38,18,30.12,30.03,20,4,26,0.00
2012-4-9,64,50,36,36,25,13,87,44,19,30.06,29.80,26,3,26,0.00
2012-4-10,47,40,34,27,20,15,59,45,32,30.00,29.83,17,3,17,0.00
2012-4-11,54,43,34,28,22,18,72,46,28,30.18,29.97,14,4,16,0.00
2012-4-12,62,46,29,36,25,19,94,50,24,30.24,30.12,11,1,11,0.00
2012-4-13,67,49,31,44,29,23,96,54,20,30.24,30.12,7,1,10,0.00
2012-4-14,61,53,44,55,44,30,93,73,50,30.12,29.88,11,1,11,0.08
2012-4-15,81,66,57,60,53,45,98,68,29,29.91,29.77,10,2,13,0.00
2012-4-16,72,64,47,58,43,29,75,49,32,30.12,29.68,17,4,22,0.00
2012-4-17,62,50,36,38,29,25,79,48,26,30.36,30.12,13,2,13,0.00
2012-4-18,63,49,35,42,32,27,82,55,27,30.30,30.00,8,2,10,0.00
2012-4-19,77,62,47,43,38,28,80,42,22,30.00,29.85,9,1,10,0.00
2012-4-20,77,59,40,52,41,36,93,57,24,29.88,29.65,15,3,15,0.31
2012-4-21,55,44,38,38,30,22,95,60,31,30.00,29.85,13,4,13,0.04
2012-4-22,54,44,35,28,22,16,74,44,27,30.00,29.88,13,4,15,0.00
2012-4-23,59,48,37,21,16,8,50,29,19,29.91,29.62,25,8,28,0.00
2012-4-24,64,51,37,24,17,9,38,26,18,29.71,29.53,22,5,22,0.00
2012-4-25,65,52,36,48,30,22,83,46,24,29.83,29.71,8,1,8,0.00
2012-4-26,60,53,42,51,45,18,94,76,36,30.00,29.62,17,2,17,0.04
2012-4-27,58,45,30,20,18,15,61,36,22,30.21,30.03,8,3,13,0.00
2012-4-28,45,42,37,36,27,17,80,56,39,30.24,30.12,5,1,10,0.16
2012-4-29,61,46,29,30,22,16,78,45,22,30.30,30.21,9,2,11,0.00
2012-4-30,60,51,43,52,38,22,97,63,38,30.18,29.88,6,2,8,0.63
2012-5-1,66,56,51,54,48,42,98,78,47,30.06,29.88,6,2,9,0.04
2012-5-2,82,66,51,62,54,48,95,69,40,29.97,29.83,4,0,13,0.04
2012-5-3,88,76,62,62,54,45,94,52,23,30.00,29.85,8,2,15,0.00
2012-5-4,74,68,62,62,57,51,84,69,54,30.00,29.91,6,0,8,0.04
2012-5-5,66,61,55,52,46,41,75,60,46,30.09,29.94,5,1,10,0.00
2012-5-6,70,58,48,42,33,24,72,43,22,30.12,30.00,5,1,10,0.00
2012-5-7,65,57,50,56,47,24,96,72,27,30.03,29.80,4,1,8,0.83
2012-5-8,71,63,56,57,46,34,93,59,32,29.85,29.77,10,2,10,0.04
2012-5-9,64,56,49,47,38,34,72,52,34,29.85,29.77,7,2,15,0.08
2012-5-10,64,54,41,41,30,23,76,44,23,30.00,29.85,8,2,14,0.00
2012-5-11,74,59,42,33,30,26,69,38,19,30.15,30.00,5,1,10,0.00
2012-5-12,77,65,54,49,37,29,60,36,21,30.21,30.15,9,1,11,0.00
2012-5-13,70,62,55,54,42,33,83,51,34,30.21,30.09,5,1,8,0.00
2012-5-14,74,62,48,52,38,25,85,47,21,30.12,30.00,3,0,8,0.00
2012-5-15,82,66,46,44,36,32,76,38,16,30.03,29.85,6,1,13,0.00
2012-5-16,68,62,52,46,31,25,60,34,22,30.12,29.88,12,3,18,0.00
2012-5-17,68,56,41,40,33,28,78,46,22,30.21,30.12,5,1,9,0.00
2012-5-18,75,60,43,48,34,26,83,44,18,30.15,30.06,4,0,9,0.00
2012-5-19,86,68,48,51,40,35,78,42,18,30.15,30.09,6,0,8,0.00
2012-5-20,88,73,54,56,43,38,76,39,18,30.15,30.03,6,1,10,0.00
2012-5-21,82,69,60,53,49,46,74,51,30,30.03,29.97,12,2,15,0.00
2012-5-22,71,63,54,54,43,39,76,50,31,30.00,29.91,8,2,11,0.00
2012-5-23,77,65,50,53,44,38,83,51,27,29.97,29.88,5,1,10,0.00
2012-5-24,84,72,58,58,51,47,85,50,29,29.94,29.80,5,1,13,0.00
2012-5-25,90,79,70,52,45,33,43,32,18,30.09,29.85,5,2,15,0.00
2012-5-26,74,68,62,49,44,39,64,43,33,30.27,30.12,6,1,10,0.04
2012-5-27,85,72,62,56,51,46,72,49,30,30.15,29.97,8,2,13,0.00
2012-5-28,96,81,64,66,51,42,87,44,17,29.94,29.77,4,1,11,0.00
2012-5-29,82,76,69,66,47,31,85,39,18,29.83,29.74,4,1,13,0.35
2012-5-30,75,67,53,42,35,32,59,33,21,29.91,29.83,8,2,14,0.00
2012-5-31,65,58,51,43,39,34,75,51,35,30.00,29.88,4,1,12,0.12
2012-6-1,59,55,50,57,50,42,94,85,68,29.85,29.56,6,2,13,0.43
2012-6-2,73,60,48,41,36,28,71,44,21,29.74,29.68,9,2,16,0.00
2012-6-3,79,68,58,48,38,31,67,36,20,29.80,29.74,7,2,18,0.00
2012-6-4,73,64,53,49,40,35,75,44,26,29.91,29.77,4,1,13,0.00
2012-6-5,68,60,52,51,40,32,82,49,27,30.00,29.91,6,1,10,0.00
2012-6-6,76,64,47,53,39,32,85,48,21,30.06,30.00,5,0,10,0.00
2012-6-7,83,68,51,48,40,34,78,42,19,30.09,30.03,6,2,13,0.00
2012-6-8,86,72,55,43,38,32,60,33,16,30.06,29.94,3,0,10,0.00
2012-6-9,90,76,61,42,39,36,46,29,17,29.97,29.91,8,1,12,0.00
2012-6-10,90,77,62,48,41,38,52,30,18,30.06,29.94,4,0,8,0.00
2012-6-11,78,71,66,64,58,51,78,63,48,30.00,29.88,3,0,8,0.12
2012-6-12,81,74,66,65,47,32,84,44,19,30.06,29.83,10,3,14,0.00
2012-6-13,74,63,50,42,35,29,59,37,21,30.21,30.09,5,1,9,0.00
2012-6-14,78,64,49,46,39,32,69,42,23,30.24,30.15,8,2,10,0.00
2012-6-15,85,72,56,58,46,37,81,46,18,30.18,30.12,5,1,8,0.00
2012-6-16,87,75,63,59,52,44,80,49,23,30.18,29.97,5,1,10,0.00
2012-6-17,81,75,68,64,56,46,73,52,35,29.94,29.83,4,0,9,0.12
2012-6-18,86,71,57,64,54,46,79,57,34,29.97,29.83,5,2,17,0.39
2012-6-19,93,83,73,55,52,49,48,36,23,30.03,29.88,5,1,11,0.00
2012-6-20,92,83,70,55,48,40,56,32,17,30.12,29.94,6,1,13,0.00
2012-6-21,93,80,71,60,51,45,57,39,20,30.00,29.85,9,2,18,0.28
2012-6-22,82,73,62,63,48,36,87,48,20,29.97,29.91,6,1,11,0.00
2012-6-23,81,71,57,58,46,38,81,45,22,30.06,29.97,5,0,8,0.00
2012-6-24,88,76,66,49,44,39,51,34,18,30.06,29.88,8,1,10,0.00
2012-6-25,75,69,60,51,39,29,62,36,21,30.03,29.91,8,3,13,0.00
2012-6-26,81,67,49,44,36,31,76,37,17,30.06,29.97,5,1,15,0.00
2012-6-27,88,73,56,47,40,34,67,35,15,30.03,29.88,4,0,11,0.00
2012-6-28,99,84,67,62,48,38,44,29,20,29.85,29.71,6,1,12,0.00
2012-6-29,91,81,70,64,52,39,76,41,18,29.91,29.80,4,0,11,0.00
2012-6-30,93,79,66,60,52,44,76,45,19,29.85,29.77,4,1,9,0.00
2012-7-1,93,77,64,61,52,43,72,46,19,29.97,29.85,4,0,22,0.08
2012-7-2,93,78,65,70,57,45,90,55,19,30.06,29.94,4,0,7,0.00
2012-7-3,91,79,72,66,60,53,75,54,29,29.97,29.83,8,1,11,0.00
2012-7-4,102,89,70,66,50,43,82,29,15,29.91,29.83,11,2,15,0.00
2012-7-5,94,79,70,63,58,52,76,50,27,29.97,29.85,18,1,18,0.12
2012-7-6,100,85,70,70,60,48,87,49,18,30.00,29.91,6,0,8,0.00
2012-7-7,103,87,73,68,59,44,72,45,14,30.00,29.85,13,1,13,0.24
2012-7-8,86,76,67,64,50,38,80,46,19,30.06,29.97,11,2,11,0.16
2012-7-9,84,72,60,64,53,44,87,55,26,30.09,30.00,8,1,8,0.04
2012-7-10,85,74,64,62,49,37,86,48,21,30.15,30.03,8,1,8,0.04
2012-7-11,85,73,57,57,43,34,79,40,17,30.18,30.12,9,1,11,0.04
2012-7-12,86,74,58,59,47,39,81,44,21,30.18,30.09,11,1,11,0.04
2012-7-13,91,79,65,65,52,43,86,46,19,30.15,30.06,10,1,10,0.00
2012-7-14,89,76,63,67,56,47,81,52,24,30.12,30.03,6,0,10,0.00
2012-7-15,94,82,72,67,56,42,82,47,18,30.06,29.94,11,1,11,0.00
2012-7-16,96,82,68,62,54,44,76,42,18,30.03,29.85,8,0,8,0.00
2012-7-17,100,87,72,59,52,44,60,34,16,29.88,29.80,13,1,14,0.00
2012-7-18,90,81,73,67,59,53,76,49,30,30.00,29.85,8,1,10,0.00
2012-7-19,83,74,67,69,61,57,83,65,44,30.00,29.91,10,1,10,0.08
2012-7-20,82,72,63,60,44,34,78,42,22,30.09,29.94,11,3,13,0.04
2012-7-21,89,73,55,56,45,39,84,43,19,30.12,30.03,8,1,10,0.00
2012-7-22,94,81,66,61,52,43,79,41,18,30.12,30.03,13,1,13,0.00
2012-7-23,96,81,75,64,56,47,67,45,21,30.09,29.88,12,2,17,0.00
2012-7-24,79,73,68,48,46,45,46,38,32,30.03,29.97,6,0,6,0.00
2012-7-25,91,76,55,64,47,38,73,40,19,30.03,29.71,11,1,11,0.00
2012-7-26,86,80,74,66,60,51,69,51,31,29.80,29.68,14,1,14,0.04
2012-7-27,89,73,65,68,60,44,89,67,22,29.94,29.77,8,0,9,0.71
2012-7-28,82,72,64,67,56,45,98,63,28,30.12,29.94,11,2,11,0.08
2012-7-29,86,79,68,52,45,40,56,31,21,30.15,30.06,9,1,9,0.00
2012-7-30,90,75,62,62,52,42,81,49,19,30.09,29.97,8,1,10,0.00
2012-7-31,89,77,65,62,53,45,84,47,25,30.03,29.91,14,1,14,0.00
2012-8-1,87,75,62,61,48,35,85,45,17,30.00,29.94,12,1,12,0.00
2012-8-2,91,76,59,59,48,38,81,43,16,30.00,29.91,8,0,8,0.00
2012-8-3,95,81,65,65,52,43,81,42,18,30.03,29.94,8,1,8,0.00
2012-8-4,92,79,68,68,60,51,89,55,30,30.06,29.91,8,1,8,0.04
2012-8-5,87,76,65,74,56,34,98,60,21,30.21,29.94,13,1,13,0.12
2012-8-6,84,70,54,56,43,35,85,43,22,30.27,30.12,9,0,9,0.00
2012-8-7,89,74,56,59,46,38,90,45,19,30.12,30.00,13,1,13,0.00
2012-8-8,90,77,66,59,50,40,73,43,19,30.09,30.03,8,1,9,0.00
2012-8-9,71,67,63,63,58,48,94,75,44,30.09,29.88,6,0,10,0.55
2012-8-10,68,64,60,67,60,49,100,89,53,29.91,29.80,10,1,11,0.35
2012-8-11,70,63,59,61,56,49,100,78,50,30.09,29.83,13,2,13,0.00
2012-8-12,82,70,59,59,50,38,92,55,23,30.15,30.06,9,1,10,0.00
2012-8-13,78,69,63,60,51,43,82,56,29,30.18,30.09,5,0,5,0.04
2012-8-14,76,67,62,64,55,43,97,68,33,30.12,30.03,8,0,8,0.28
2012-8-15,82,66,57,64,56,47,97,73,30,30.15,30.09,8,0,8,0.51
2012-8-16,81,70,62,68,57,49,100,67,35,30.15,29.97,11,1,11,0.28
2012-8-17,77,68,60,62,48,35,92,54,23,30.18,30.00,11,2,12,0.28
2012-8-18,75,65,50,52,37,29,80,40,19,30.21,30.15,8,0,8,0.00
2012-8-19,78,65,52,49,40,33,76,45,22,30.18,30.09,8,0,8,0.00
2012-8-20,76,65,53,57,46,39,89,53,27,30.21,30.12,8,0,8,0.00
2012-8-21,77,65,53,58,48,37,90,58,25,30.33,30.21,7,0,7,0.00
2012-8-22,83,68,53,62,44,32,93,51,17,30.39,30.09,8,0,10,0.00
2012-8-23,90,77,58,61,48,41,84,40,19,30.18,30.09,7,0,7,0.00
2012-8-24,93,77,61,67,54,44,90,52,19,30.15,30.09,8,1,8,0.00
2012-8-25,95,80,66,68,56,44,93,52,18,30.15,30.09,8,1,8,0.00
2012-8-26,79,74,69,67,64,58,86,73,48,30.12,30.00,6,0,6,0.00
2012-8-27,83,77,70,75,66,52,96,73,37,30.03,29.97,6,0,6,0.67
2012-8-28,84,74,64,64,51,40,86,50,23,30.12,30.03,13,2,14,0.67
2012-8-29,83,71,60,65,53,44,89,57,27,30.15,30.03,6,0,6,0.67
2012-8-30,88,73,58,64,51,42,92,52,22,30.12,30.00,7,1,9,0.67
2012-8-31,97,80,63,65,55,47,78,45,19,30.09,30.00,13,1,15,0.67
2012-9-1,86,78,71,69,53,42,76,44,24,30.12,30.03,6,0,7,0.67
2012-9-2,84,77,71,67,60,52,70,57,42,30.06,29.94,10,2,10,0.67
2012-9-3,90,80,70,72,61,55,82,55,33,29.97,29.91,8,1,8,0.67
2012-9-4,85,78,72,77,68,60,97,75,43,29.94,29.85,8,0,8,0.67
2012-9-5,85,76,68,76,66,58,100,73,41,29.91,29.80,6,0,7,0.04
2012-9-6,90,77,69,78,62,44,100,67,23,29.94,29.85,8,0,8,0.67
2012-9-7,86,74,62,66,56,42,91,58,24,29.94,29.74,8,0,8,0.67
2012-9-8,76,68,60,65,49,37,94,58,26,29.88,29.68,17,2,17,0.67
2012-9-9,75,63,54,57,44,35,89,54,26,30.09,29.85,10,0,10,0.67
2012-9-10,78,64,49,58,42,33,91,52,21,30.24,30.09,8,0,8,0.67
2012-9-11,84,68,52,55,44,39,85,47,22,30.24,30.15,10,1,10,0.00
2012-9-12,88,72,54,52,46,41,80,43,21,30.27,30.18,8,1,10,0.00
2012-9-13,90,76,65,55,48,38,67,41,17,30.27,30.18,11,1,11,0.00
2012-9-14,74,66,58,58,48,34,89,58,24,30.30,30.21,13,2,13,0.31
2012-9-15,76,63,50,52,41,34,86,51,23,30.33,30.18,8,0,9,0.00
2012-9-16,82,66,51,49,42,36,80,47,22,30.18,30.03,10,0,10,0.00
2012-9-17,83,68,52,66,47,39,90,52,24,30.03,29.77,8,0,8,0.08
2012-9-18,70,63,50,68,46,26,94,58,28,30.00,29.62,16,2,20,0.00
2012-9-19,72,57,41,44,31,27,81,42,22,30.12,30.00,10,1,14,0.00
2012-9-20,73,64,56,53,38,28,77,41,28,30.00,29.85,11,1,11,0.16
2012-9-21,75,61,50,48,40,30,80,50,21,29.94,29.80,14,1,14,0.04
2012-9-22,64,56,48,55,46,39,91,72,44,30.09,29.74,14,0,14,0.16
2012-9-23,63,54,46,52,39,28,93,63,28,30.21,30.06,10,1,11,0.04
2012-9-24,69,54,40,42,32,26,87,48,22,30.21,29.94,11,1,12,0.00
2012-9-25,75,63,54,60,41,27,87,46,27,29.97,29.88,8,1,9,0.00
2012-9-26,77,68,59,67,56,42,96,70,43,30.15,29.88,10,1,10,0.00
2012-9-27,71,61,53,43,38,32,67,45,26,30.21,30.15,11,1,11,0.00
2012-9-28,74,61,51,51,41,33,78,52,24,30.18,30.06,10,0,10,0.00
2012-9-29,74,60,46,53,39,31,90,51,21,30.09,29.91,10,1,10,0.00
2012-9-30,68,59,50,50,40,34,82,52,29,29.97,29.91,10,1,10,0.00
2012-10-1,70,57,43,56,40,33,90,58,27,29.94,29.85,6,0,8,0.00
2012-10-2,73,64,58,59,51,42,90,65,39,29.91,29.83,8,1,10,0.20
2012-10-3,70,65,62,65,54,48,96,70,49,30.09,29.88,8,0,8,0.00
2012-10-4,79,69,60,54,45,37,72,44,24,30.12,30.03,10,1,12,0.16
2012-10-5,71,60,48,50,41,33,81,51,38,30.09,29.97,10,1,10,0.16
2012-10-6,55,48,41,44,35,25,92,63,33,30.12,29.94,12,1,12,0.00
2012-10-7,52,48,44,41,36,30,78,63,44,30.15,30.06,10,0,10,0.00
2012-10-8,59,47,34,42,29,21,89,55,25,30.21,30.12,10,1,10,0.00
2012-10-9,66,52,42,37,30,24,78,46,26,30.12,29.94,9,2,10,0.00
2012-10-12,57,56,55,24,23,19,29,28,25,30.39,30.36,10,3,10,0.00
2012-10-15,57,54,51,36,34,32,53,48,42,29.91,29.80,14,2,15,0.00
2012-10-16,64,51,44,35,31,28,58,46,27,29.94,29.83,8,0,9,0.00
2012-10-17,78,71,62,55,43,35,77,41,23,29.68,29.56,10,2,12,0.20
2012-10-18,66,60,53,55,39,26,81,48,26,29.65,29.41,12,2,13,0.28
2012-10-19,61,54,49,47,36,28,91,54,32,29.65,29.53,12,1,12,0.08
2012-10-20,60,53,47,48,42,35,93,69,42,29.88,29.56,9,0,13,0.00
2012-10-21,66,53,45,50,38,32,95,61,29,30.06,29.88,8,0,10,0.00
2012-10-22,76,64,43,53,46,36,87,55,36,30.06,29.94,6,0,8,0.00
2012-10-23,76,67,62,62,54,48,95,64,39,30.00,29.88,8,0,8,0.08
2012-10-24,82,72,64,61,53,45,84,55,31,30.03,29.97,8,0,8,0.00
2012-10-25,83,72,60,49,44,39,66,38,23,30.00,29.88,11,2,11,0.00
2012-10-26,73,56,50,48,36,28,66,47,36,30.21,29.88,15,4,17,0.00
2012-10-27,60,50,42,32,27,21,56,41,28,30.18,30.09,14,4,15,0.00
2012-10-28,56,47,41,28,24,19,55,41,29,30.15,30.06,16,5,17,0.00
2012-10-29,47,46,44,25,23,20,43,41,33,30.06,29.77,25,9,26,0.00
2012-10-30,47,44,42,35,33,30,75,65,53,29.50,29.41,22,8,22,0.00
2012-10-31,47,43,40,38,35,32,89,73,60,29.65,29.47,13,4,15,0.04
2012-11-1,55,47,43,36,27,19,73,48,29,29.77,29.65,14,3,15,0.04
2012-11-2,48,43,37,27,23,19,56,45,33,30.03,29.74,17,2,17,0.00
2012-11-3,53,42,32,32,23,20,79,48,30,30.12,30.03,11,2,11,0.00
2012-11-4,44,38,29,24,19,14,58,47,35,30.15,30.09,8,1,8,0.04
2012-11-5,47,33,24,24,16,12,73,52,30,30.15,30.09,8,0,8,0.00
2012-11-6,46,34,26,28,19,15,78,58,31,30.09,29.91,8,1,8,0.00
2012-11-7,51,37,28,25,19,12,72,52,30,30.09,29.91,8,1,8,0.00
2012-11-8,51,35,22,35,21,15,84,59,29,30.15,30.06,6,0,8,0.00
2012-11-9,57,42,28,41,29,21,92,63,32,30.15,30.03,8,0,8,0.12
2012-11-10,66,55,47,43,38,33,85,57,33,30.09,30.00,10,1,10,0.00
2012-11-11,70,61,55,34,30,25,39,31,25,30.09,29.94,17,5,17,0.00
2012-11-12,62,45,33,52,32,14,89,61,26,30.21,29.88,17,2,23,0.51
2012-11-13,35,32,25,17,13,10,55,46,36,30.47,30.21,6,1,8,0.00
2012-11-14,42,30,21,25,16,11,77,56,35,30.50,30.36,6,0,6,0.00
2012-11-15,50,37,28,26,22,19,75,56,33,30.36,30.27,5,0,5,0.00
2012-11-16,54,35,23,36,21,16,89,59,28,30.45,30.30,0,0,0,0.00
2012-11-17,53,36,24,34,23,16,83,61,35,30.53,30.45,0,0,0,0.00
2012-11-18,54,40,30,45,29,20,98,69,28,30.47,30.36,0,0,0,0.00
2012-11-19,54,39,27,41,26,22,89,64,30,30.36,30.12,0,0,0,0.00
2012-11-20,54,45,38,38,32,28,86,62,39,30.12,30.03,3,0,3,0.00
2012-11-21,61,44,32,44,31,28,91,65,30,30.18,30.09,4,0,4,0.00
2012-11-22,63,48,31,46,34,30,100,63,35,30.12,29.80,13,2,13,0.00
2012-11-23,54,46,37,49,31,17,92,59,43,29.80,29.71,17,3,17,0.08
2012-11-24,34,32,30,12,10,9,48,40,36,30.03,29.97,3,3,3,0.08
2012-11-25,42,34,28,18,15,12,60,47,37,29.97,29.80,3,3,3,0.08
2012-11-26,40,32,26,26,16,11,78,53,37,30.21,29.94,3,3,3,0.08
2012-11-27,38,28,20,16,9,4,67,46,31,30.30,30.18,8,1,8,0.08
2012-11-28,42,31,23,16,12,8,64,47,32,30.27,30.15,10,1,14,0.08
2012-11-29,49,35,25,21,17,14,64,49,30,30.24,30.15,7,0,8,0.00
2012-11-30,47,40,35,31,24,20,78,54,37,30.18,30.06,3,1,3,0.08
2012-12-1,57,46,36,42,33,30,86,63,39,30.18,29.97,10,3,10,0.08
2012-12-2,57,54,50,55,47,36,96,79,45,30.06,29.88,6,1,8,0.00
2012-12-3,63,56,50,61,53,48,100,93,63,30.09,29.88,12,2,14,0.08
2012-12-4,62,51,37,50,42,28,91,72,62,30.06,29.88,6,2,6,0.08
2012-12-5,39,33,28,30,17,12,73,52,33,30.33,30.06,0,0,0,0.00
2012-12-6,40,34,23,22,19,17,86,57,44,30.30,29.91,0,0,0,0.08
2012-12-7,43,41,39,42,32,20,99,73,44,29.91,29.83,2,0,3,0.31
2012-12-8,42,39,35,42,36,26,100,89,68,30.09,29.77,10,1,11,0.20
2012-12-9,41,38,34,41,32,22,100,80,57,30.12,29.59,15,3,15,0.16
2012-12-10,42,38,32,42,30,18,100,72,52,29.83,29.56,10,2,13,0.00
2012-12-11,37,30,25,23,17,12,76,59,42,30.09,29.80,8,1,8,0.28
2012-12-12,42,31,24,20,18,15,78,60,37,30.30,30.09,5,0,7,0.00
2012-12-13,45,35,26,20,17,14,68,49,31,30.30,30.12,8,2,10,0.00
2012-12-14,48,35,28,27,21,18,79,57,40,30.18,30.12,5,1,5,0.00
2012-12-15,47,38,31,42,30,24,96,75,48,30.12,29.65,9,2,10,0.28
2012-12-16,54,50,44,52,44,32,100,80,60,29.65,29.56,8,1,10,0.20
2012-12-17,44,41,39,34,30,26,76,64,54,29.71,29.59,8,0,8,0.28
2012-12-18,42,37,33,33,27,20,89,68,42,29.74,29.59,8,1,9,0.04
2012-12-19,42,38,35,36,30,24,92,74,53,30.06,29.68,6,0,6,0.00
2012-12-20,49,40,34,48,35,24,100,80,58,30.03,29.15,15,4,15,0.75
2012-12-21,34,33,31,32,23,14,94,68,46,29.83,29.15,26,3,28,0.28
2012-12-22,38,31,25,21,15,11,73,52,39,30.03,29.83,17,3,21,0.00
2012-12-23,38,27,20,19,16,13,83,63,41,29.97,29.83,9,1,9,0.00
2012-12-24,35,28,21,26,19,12,81,68,54,29.94,29.74,8,2,10,0.28
2012-12-25,34,29,22,22,17,14,83,62,49,30.21,29.91,8,2,9,0.28
2012-12-26,31,29,26,25,19,14,83,68,50,30.18,29.74,16,6,16,0.00
2012-12-27,37,27,14,24,16,7,85,65,41,30.12,29.80,13,3,13,0.28
2012-12-28,34,21,9,22,12,2,81,69,45,30.09,29.85,5,0,5,0.00
2012-12-29,34,28,20,26,21,14,92,76,56,30.00,29.71,8,0,8,0.28
2012-12-30,30,23,17,27,14,7,95,69,51,30.24,30.00,6,1,8,0.28
2012-12-31,37,29,18,27,17,10,80,62,43,30.15,29.88,10,2,10,0.00
2013-1-1,33,22,11,13,5,-5,56,46,32,30.09,29.94,11,2,11,0.00